sensor_id;sensor_type;location;lat;lon;timestamp;pressure;altitude;pressure_sealevel;temperature;humidity
39177;BME280;24904;52.208;21.192;2022-07-23T00:04:28;100506.04;;;20.53;65.51
39177;BME280;24904;52.208;21.192;2022-07-23T00:09:31;100505.28;;;20.49;65.63
39177;BME280;24904;52.208;21.192;2022-07-23T00:14:34;100499.19;;;20.47;65.78
39177;BME280;24904;52.208;21.192;2022-07-23T00:19:37;100505.73;;;20.45;65.73
39177;BME280;24904;52.208;21.192;2022-07-23T00:24:40;100503.77;;;20.44;65.79
39177;BME280;24904;52.208;21.192;2022-07-23T00:29:44;100506.95;;;20.44;65.87
39177;BME280;24904;52.208;21.192;2022-07-23T00:34:47;100503.73;;;20.38;65.88
39177;BME280;24904;52.208;21.192;2022-07-23T00:39:50;100504.52;;;20.29;66.22
39177;BME280;24904;52.208;21.192;2022-07-23T00:44:53;100508.67;;;20.22;66.49
39177;BME280;24904;52.208;21.192;2022-07-23T00:49:56;100507.57;;;20.13;66.64
39177;BME280;24904;52.208;21.192;2022-07-23T00:54:59;100502.88;;;20.09;66.95
39177;BME280;24904;52.208;21.192;2022-07-23T01:00:03;100502.45;;;20.01;66.79
39177;BME280;24904;52.208;21.192;2022-07-23T01:05:08;100500.16;;;19.94;67.08
39177;BME280;24904;52.208;21.192;2022-07-23T01:10:11;100501.73;;;19.89;67.13
39177;BME280;24904;52.208;21.192;2022-07-23T01:15:34;100499.04;;;19.82;67.20
39177;BME280;24904;52.208;21.192;2022-07-23T01:20:38;100498.72;;;19.73;67.32
39177;BME280;24904;52.208;21.192;2022-07-23T01:25:49;100498.79;;;19.69;67.65
39177;BME280;24904;52.208;21.192;2022-07-23T01:30:55;100501.95;;;19.64;67.94
39177;BME280;24904;52.208;21.192;2022-07-23T01:35:58;100505.24;;;19.60;68.22
39177;BME280;24904;52.208;21.192;2022-07-23T01:41:02;100505.44;;;19.58;68.42
39177;BME280;24904;52.208;21.192;2022-07-23T01:46:07;100504.73;;;19.53;68.41
39177;BME280;24904;52.208;21.192;2022-07-23T01:51:14;100506.37;;;19.47;68.61
39177;BME280;24904;52.208;21.192;2022-07-23T01:56:18;100496.84;;;19.43;68.83
39177;BME280;24904;52.208;21.192;2022-07-23T02:01:23;100491.29;;;19.35;69.03
39177;BME280;24904;52.208;21.192;2022-07-23T02:06:26;100491.77;;;19.32;69.12
39177;BME280;24904;52.208;21.192;2022-07-23T02:11:29;100493.97;;;19.30;69.48
39177;BME280;24904;52.208;21.192;2022-07-23T02:16:32;100491.67;;;19.30;69.70
39177;BME280;24904;52.208;21.192;2022-07-23T02:21:37;100491.38;;;19.27;69.84
39177;BME280;24904;52.208;21.192;2022-07-23T02:26:41;100493.13;;;19.24;69.94
39177;BME280;24904;52.208;21.192;2022-07-23T02:31:44;100494.64;;;19.17;70.07
39177;BME280;24904;52.208;21.192;2022-07-23T02:36:49;100485.00;;;19.14;70.24
39177;BME280;24904;52.208;21.192;2022-07-23T02:41:52;100483.77;;;19.13;70.32
39177;BME280;24904;52.208;21.192;2022-07-23T02:46:55;100484.73;;;19.09;70.38
39177;BME280;24904;52.208;21.192;2022-07-23T02:51:59;100481.45;;;18.98;70.49
39177;BME280;24904;52.208;21.192;2022-07-23T02:57:02;100478.62;;;18.93;70.55
39177;BME280;24904;52.208;21.192;2022-07-23T03:02:06;100481.73;;;18.85;70.72
39177;BME280;24904;52.208;21.192;2022-07-23T03:07:09;100485.73;;;18.83;70.92
39177;BME280;24904;52.208;21.192;2022-07-23T03:12:12;100478.67;;;18.76;71.09
39177;BME280;24904;52.208;21.192;2022-07-23T03:17:15;100477.09;;;18.76;71.20
39177;BME280;24904;52.208;21.192;2022-07-23T03:22:18;100474.95;;;18.72;71.25
39177;BME280;24904;52.208;21.192;2022-07-23T03:27:22;100474.48;;;18.67;71.32
39177;BME280;24904;52.208;21.192;2022-07-23T03:32:26;100478.17;;;18.68;71.56
39177;BME280;24904;52.208;21.192;2022-07-23T03:37:29;100483.92;;;18.67;71.63
39177;BME280;24904;52.208;21.192;2022-07-23T03:42:33;100482.86;;;18.68;71.78
39177;BME280;24904;52.208;21.192;2022-07-23T03:47:38;100483.60;;;18.73;71.86
39177;BME280;24904;52.208;21.192;2022-07-23T03:52:42;100488.60;;;18.77;72.23
39177;BME280;24904;52.208;21.192;2022-07-23T03:57:45;100490.98;;;18.84;72.32
39177;BME280;24904;52.208;21.192;2022-07-23T04:02:48;100488.16;;;18.90;72.45
39177;BME280;24904;52.208;21.192;2022-07-23T04:07:52;100493.13;;;18.95;72.27
39177;BME280;24904;52.208;21.192;2022-07-23T04:12:56;100496.81;;;19.01;72.52
39177;BME280;24904;52.208;21.192;2022-07-23T04:17:59;100498.90;;;19.08;72.48
39177;BME280;24904;52.208;21.192;2022-07-23T04:23:10;100496.56;;;19.17;72.64
39177;BME280;24904;52.208;21.192;2022-07-23T04:28:14;100493.33;;;19.26;72.59
39177;BME280;24904;52.208;21.192;2022-07-23T04:33:18;100494.28;;;19.37;72.53
39177;BME280;24904;52.208;21.192;2022-07-23T04:38:22;100490.27;;;19.48;72.59
39177;BME280;24904;52.208;21.192;2022-07-23T04:43:28;100495.77;;;19.60;72.77
39177;BME280;24904;52.208;21.192;2022-07-23T04:48:31;100492.62;;;19.71;72.76
39177;BME280;24904;52.208;21.192;2022-07-23T04:53:41;100483.67;;;19.85;72.87
39177;BME280;24904;52.208;21.192;2022-07-23T04:58:44;100485.70;;;19.99;73.01
39177;BME280;24904;52.208;21.192;2022-07-23T05:03:47;100487.48;;;20.14;72.94
39177;BME280;24904;52.208;21.192;2022-07-23T05:08:51;100485.44;;;20.27;72.78
39177;BME280;24904;52.208;21.192;2022-07-23T05:13:55;100487.83;;;20.43;72.62
39177;BME280;24904;52.208;21.192;2022-07-23T05:18:58;100492.99;;;20.58;72.51
39177;BME280;24904;52.208;21.192;2022-07-23T05:24:01;100498.58;;;20.75;72.32
39177;BME280;24904;52.208;21.192;2022-07-23T05:29:05;100505.70;;;20.93;72.02
39177;BME280;24904;52.208;21.192;2022-07-23T05:34:08;100507.45;;;21.12;71.82
39177;BME280;24904;52.208;21.192;2022-07-23T05:39:12;100507.30;;;21.31;71.25
39177;BME280;24904;52.208;21.192;2022-07-23T05:44:15;100501.27;;;21.50;70.51
39177;BME280;24904;52.208;21.192;2022-07-23T05:49:20;100492.54;;;21.69;69.78
39177;BME280;24904;52.208;21.192;2022-07-23T05:54:52;100488.63;;;21.90;69.50
39177;BME280;24904;52.208;21.192;2022-07-23T05:59:55;100488.33;;;22.09;69.01
39177;BME280;24904;52.208;21.192;2022-07-23T06:04:58;100488.10;;;22.27;68.56
39177;BME280;24904;52.208;21.192;2022-07-23T06:10:07;100483.21;;;22.45;68.06
39177;BME280;24904;52.208;21.192;2022-07-23T06:15:11;100483.42;;;22.66;67.50
39177;BME280;24904;52.208;21.192;2022-07-23T06:20:15;100482.89;;;22.92;66.92
39177;BME280;24904;52.208;21.192;2022-07-23T06:25:19;100478.06;;;23.13;66.35
39177;BME280;24904;52.208;21.192;2022-07-23T06:30:22;100479.14;;;23.32;66.23
39177;BME280;24904;52.208;21.192;2022-07-23T06:35:26;100480.92;;;23.50;65.97
39177;BME280;24904;52.208;21.192;2022-07-23T06:40:29;100478.60;;;23.68;65.31
39177;BME280;24904;52.208;21.192;2022-07-23T06:45:32;100476.61;;;23.86;64.65
39177;BME280;24904;52.208;21.192;2022-07-23T06:50:35;100477.66;;;24.06;63.65
39177;BME280;24904;52.208;21.192;2022-07-23T06:55:38;100481.24;;;24.29;62.28
39177;BME280;24904;52.208;21.192;2022-07-23T07:00:42;100483.28;;;24.49;61.86
39177;BME280;24904;52.208;21.192;2022-07-23T07:05:45;100479.64;;;24.69;61.52
39177;BME280;24904;52.208;21.192;2022-07-23T07:10:48;100469.99;;;24.89;60.81
39177;BME280;24904;52.208;21.192;2022-07-23T07:15:51;100467.58;;;25.06;59.81
39177;BME280;24904;52.208;21.192;2022-07-23T07:20:54;100461.21;;;25.24;59.61
39177;BME280;24904;52.208;21.192;2022-07-23T07:25:57;100462.10;;;25.42;58.93
39177;BME280;24904;52.208;21.192;2022-07-23T07:31:00;100461.34;;;25.63;58.38
39177;BME280;24904;52.208;21.192;2022-07-23T07:36:05;100457.63;;;25.84;57.69
39177;BME280;24904;52.208;21.192;2022-07-23T07:41:09;100451.36;;;26.09;57.30
39177;BME280;24904;52.208;21.192;2022-07-23T07:46:12;100451.90;;;26.34;56.55
39177;BME280;24904;52.208;21.192;2022-07-23T07:51:15;100444.77;;;26.60;55.82
39177;BME280;24904;52.208;21.192;2022-07-23T07:56:18;100450.04;;;26.81;55.36
39177;BME280;24904;52.208;21.192;2022-07-23T08:01:21;100448.92;;;26.99;55.28
39177;BME280;24904;52.208;21.192;2022-07-23T08:06:25;100452.16;;;27.14;54.00
39177;BME280;24904;52.208;21.192;2022-07-23T08:11:28;100450.83;;;27.35;53.82
39177;BME280;24904;52.208;21.192;2022-07-23T08:16:31;100457.47;;;27.54;52.98
39177;BME280;24904;52.208;21.192;2022-07-23T08:21:34;100454.15;;;27.73;51.86
39177;BME280;24904;52.208;21.192;2022-07-23T08:26:37;100451.80;;;27.93;51.31
39177;BME280;24904;52.208;21.192;2022-07-23T08:31:40;100453.52;;;28.06;50.35
39177;BME280;24904;52.208;21.192;2022-07-23T08:36:43;100451.11;;;28.17;50.57
39177;BME280;24904;52.208;21.192;2022-07-23T08:41:46;100453.11;;;28.32;49.82
39177;BME280;24904;52.208;21.192;2022-07-23T08:46:50;100447.40;;;28.46;49.20
39177;BME280;24904;52.208;21.192;2022-07-23T08:51:54;100449.67;;;28.54;48.01
39177;BME280;24904;52.208;21.192;2022-07-23T08:56:57;100451.11;;;28.58;47.50
39177;BME280;24904;52.208;21.192;2022-07-23T09:02:00;100448.50;;;28.63;47.38
39177;BME280;24904;52.208;21.192;2022-07-23T09:07:04;100448.85;;;28.75;47.31
39177;BME280;24904;52.208;21.192;2022-07-23T09:12:09;100449.03;;;28.84;46.58
39177;BME280;24904;52.208;21.192;2022-07-23T09:17:13;100447.24;;;28.93;45.73
39177;BME280;24904;52.208;21.192;2022-07-23T09:22:21;100446.29;;;28.97;44.79
39177;BME280;24904;52.208;21.192;2022-07-23T09:27:48;100440.50;;;29.04;44.39
39177;BME280;24904;52.208;21.192;2022-07-23T09:33:12;100438.06;;;29.10;44.90
39177;BME280;24904;52.208;21.192;2022-07-23T09:38:15;100439.98;;;29.25;44.62
39177;BME280;24904;52.208;21.192;2022-07-23T09:43:28;100442.06;;;29.38;43.65
39177;BME280;24904;52.208;21.192;2022-07-23T09:48:31;100440.67;;;29.49;42.66
39177;BME280;24904;52.208;21.192;2022-07-23T09:53:34;100436.52;;;29.55;42.99
39177;BME280;24904;52.208;21.192;2022-07-23T09:58:40;100426.08;;;29.62;42.77
39177;BME280;24904;52.208;21.192;2022-07-23T10:03:48;100423.77;;;29.73;42.16
39177;BME280;24904;52.208;21.192;2022-07-23T10:09:12;100419.50;;;29.72;41.55
39177;BME280;24904;52.208;21.192;2022-07-23T10:14:44;100422.90;;;29.77;41.02
39177;BME280;24904;52.208;21.192;2022-07-23T10:19:48;100413.73;;;29.76;40.52
39177;BME280;24904;52.208;21.192;2022-07-23T10:24:58;100413.56;;;29.70;40.15
39177;BME280;24904;52.208;21.192;2022-07-23T10:30:04;100414.21;;;29.68;40.49
39177;BME280;24904;52.208;21.192;2022-07-23T10:35:10;100407.87;;;29.73;40.24
39177;BME280;24904;52.208;21.192;2022-07-23T10:40:17;100406.49;;;29.80;40.33
39177;BME280;24904;52.208;21.192;2022-07-23T10:45:26;100399.79;;;29.91;40.65
39177;BME280;24904;52.208;21.192;2022-07-23T10:50:30;100399.37;;;30.02;40.49
39177;BME280;24904;52.208;21.192;2022-07-23T10:55:45;100403.39;;;30.12;40.27
39177;BME280;24904;52.208;21.192;2022-07-23T11:00:49;100405.46;;;30.16;40.38
39177;BME280;24904;52.208;21.192;2022-07-23T11:05:52;100400.01;;;30.24;40.24
39177;BME280;24904;52.208;21.192;2022-07-23T11:11:08;100401.34;;;30.22;39.25
39177;BME280;24904;52.208;21.192;2022-07-23T11:16:25;100399.70;;;30.16;39.05
39177;BME280;24904;52.208;21.192;2022-07-23T11:21:54;100394.84;;;30.12;39.41
39177;BME280;24904;52.208;21.192;2022-07-23T11:27:03;100389.14;;;30.13;39.19
39177;BME280;24904;52.208;21.192;2022-07-23T11:32:08;100385.58;;;30.14;39.30
39177;BME280;24904;52.208;21.192;2022-07-23T11:37:33;100387.85;;;30.19;39.17
39177;BME280;24904;52.208;21.192;2022-07-23T11:42:41;100385.29;;;30.26;38.85
39177;BME280;24904;52.208;21.192;2022-07-23T11:47:53;100380.00;;;30.29;38.70
39177;BME280;24904;52.208;21.192;2022-07-23T11:52:56;100372.94;;;30.27;38.67
39177;BME280;24904;52.208;21.192;2022-07-23T11:58:00;100377.48;;;30.31;39.11
39177;BME280;24904;52.208;21.192;2022-07-23T12:03:04;100372.42;;;30.35;38.98
39177;BME280;24904;52.208;21.192;2022-07-23T12:08:09;100363.98;;;30.37;38.54
39177;BME280;24904;52.208;21.192;2022-07-23T12:13:14;100356.92;;;30.34;38.61
39177;BME280;24904;52.208;21.192;2022-07-23T12:18:20;100350.48;;;30.26;38.97
39177;BME280;24904;52.208;21.192;2022-07-23T12:23:25;100344.08;;;30.24;38.78
39177;BME280;24904;52.208;21.192;2022-07-23T12:28:30;100330.44;;;30.24;38.95
39177;BME280;24904;52.208;21.192;2022-07-23T12:33:37;100324.25;;;30.24;39.50
39177;BME280;24904;52.208;21.192;2022-07-23T12:38:42;100324.10;;;30.22;39.46
39177;BME280;24904;52.208;21.192;2022-07-23T12:43:46;100318.55;;;30.17;39.38
39177;BME280;24904;52.208;21.192;2022-07-23T12:48:52;100313.09;;;30.13;39.19
39177;BME280;24904;52.208;21.192;2022-07-23T12:53:57;100310.61;;;30.12;38.72
39177;BME280;24904;52.208;21.192;2022-07-23T12:59:06;100301.64;;;30.12;38.64
39177;BME280;24904;52.208;21.192;2022-07-23T13:04:11;100298.29;;;30.11;38.40
39177;BME280;24904;52.208;21.192;2022-07-23T13:09:16;100290.92;;;30.06;38.10
39177;BME280;24904;52.208;21.192;2022-07-23T13:14:21;100282.70;;;29.96;38.18
39177;BME280;24904;52.208;21.192;2022-07-23T13:19:25;100281.04;;;29.85;38.88
39177;BME280;24904;52.208;21.192;2022-07-23T13:24:28;100275.83;;;29.74;39.64
39177;BME280;24904;52.208;21.192;2022-07-23T13:29:31;100272.92;;;29.66;39.64
39177;BME280;24904;52.208;21.192;2022-07-23T13:34:35;100276.72;;;29.59;39.35
39177;BME280;24904;52.208;21.192;2022-07-23T13:39:38;100281.02;;;29.55;39.70
39177;BME280;24904;52.208;21.192;2022-07-23T13:44:41;100281.16;;;29.50;39.76
39177;BME280;24904;52.208;21.192;2022-07-23T13:49:44;100284.73;;;29.46;39.46
39177;BME280;24904;52.208;21.192;2022-07-23T13:54:47;100286.33;;;29.40;40.43
39177;BME280;24904;52.208;21.192;2022-07-23T13:59:50;100276.04;;;29.35;40.11
39177;BME280;24904;52.208;21.192;2022-07-23T14:04:53;100280.04;;;29.31;40.58
39177;BME280;24904;52.208;21.192;2022-07-23T14:09:56;100286.58;;;29.25;40.54
39177;BME280;24904;52.208;21.192;2022-07-23T14:14:59;100286.56;;;29.20;41.15
39177;BME280;24904;52.208;21.192;2022-07-23T14:20:04;100283.75;;;29.13;40.61
39177;BME280;24904;52.208;21.192;2022-07-23T14:25:09;100284.34;;;29.05;40.57
39177;BME280;24904;52.208;21.192;2022-07-23T14:30:13;100278.22;;;28.95;40.36
39177;BME280;24904;52.208;21.192;2022-07-23T14:35:17;100279.41;;;28.83;40.69
39177;BME280;24904;52.208;21.192;2022-07-23T14:40:21;100282.97;;;28.71;41.48
39177;BME280;24904;52.208;21.192;2022-07-23T14:45:24;100283.00;;;28.59;41.95
39177;BME280;24904;52.208;21.192;2022-07-23T14:50:28;100291.34;;;28.46;42.84
39177;BME280;24904;52.208;21.192;2022-07-23T14:55:32;100301.39;;;28.33;42.92
39177;BME280;24904;52.208;21.192;2022-07-23T15:00:35;100352.65;;;28.16;43.44
39177;BME280;24904;52.208;21.192;2022-07-23T15:05:38;100397.64;;;27.60;44.95
39177;BME280;24904;52.208;21.192;2022-07-23T15:10:41;100406.06;;;26.95;46.79
39177;BME280;24904;52.208;21.192;2022-07-23T15:15:45;100408.14;;;26.37;48.18
39177;BME280;24904;52.208;21.192;2022-07-23T15:20:48;100408.41;;;25.67;50.14
39177;BME280;24904;52.208;21.192;2022-07-23T15:25:51;100412.24;;;25.02;52.56
39177;BME280;24904;52.208;21.192;2022-07-23T15:30:55;100433.13;;;24.46;54.64
39177;BME280;24904;52.208;21.192;2022-07-23T15:35:58;100441.70;;;24.04;56.43
39177;BME280;24904;52.208;21.192;2022-07-23T15:41:02;100444.70;;;23.65;57.55
39177;BME280;24904;52.208;21.192;2022-07-23T15:46:06;100464.52;;;23.26;59.29
39177;BME280;24904;52.208;21.192;2022-07-23T15:51:09;100477.49;;;22.86;61.33
39177;BME280;24904;52.208;21.192;2022-07-23T15:56:13;100491.67;;;22.55;63.03
39177;BME280;24904;52.208;21.192;2022-07-23T16:01:16;100511.60;;;22.32;64.53
39177;BME280;24904;52.208;21.192;2022-07-23T16:06:19;100505.55;;;22.10;65.24
39177;BME280;24904;52.208;21.192;2022-07-23T16:11:22;100514.95;;;21.94;66.16
39177;BME280;24904;52.208;21.192;2022-07-23T16:16:25;100522.45;;;21.75;66.82
39177;BME280;24904;52.208;21.192;2022-07-23T16:21:29;100537.45;;;21.62;67.63
39177;BME280;24904;52.208;21.192;2022-07-23T16:26:32;100546.55;;;21.47;67.82
39177;BME280;24904;52.208;21.192;2022-07-23T16:31:35;100551.98;;;21.36;68.21
39177;BME280;24904;52.208;21.192;2022-07-23T16:36:38;100548.21;;;21.23;68.51
39177;BME280;24904;52.208;21.192;2022-07-23T16:41:42;100535.92;;;21.13;69.15
39177;BME280;24904;52.208;21.192;2022-07-23T16:46:45;100524.31;;;21.03;69.83
39177;BME280;24904;52.208;21.192;2022-07-23T16:51:48;100507.67;;;20.94;70.02
39177;BME280;24904;52.208;21.192;2022-07-23T16:56:53;100471.70;;;20.83;70.78
39177;BME280;24904;52.208;21.192;2022-07-23T17:01:57;100438.77;;;20.67;71.13
39177;BME280;24904;52.208;21.192;2022-07-23T17:07:00;100418.44;;;20.59;71.43
39177;BME280;24904;52.208;21.192;2022-07-23T17:12:07;100392.63;;;20.50;71.32
39177;BME280;24904;52.208;21.192;2022-07-23T17:17:11;100383.25;;;20.41;72.03
39177;BME280;24904;52.208;21.192;2022-07-23T17:22:14;100385.92;;;20.38;72.16
39177;BME280;24904;52.208;21.192;2022-07-23T17:27:17;100385.77;;;20.36;72.56
39177;BME280;24904;52.208;21.192;2022-07-23T17:32:20;100364.95;;;20.31;72.85
39177;BME280;24904;52.208;21.192;2022-07-23T17:37:24;100355.83;;;20.19;72.69
39177;BME280;24904;52.208;21.192;2022-07-23T17:42:27;100344.90;;;20.08;73.10
39177;BME280;24904;52.208;21.192;2022-07-23T17:47:30;100325.77;;;20.01;73.51
39177;BME280;24904;52.208;21.192;2022-07-23T17:52:33;100312.72;;;20.06;74.14
39177;BME280;24904;52.208;21.192;2022-07-23T17:57:45;100294.34;;;20.07;74.00
39177;BME280;24904;52.208;21.192;2022-07-23T18:02:48;100284.06;;;20.00;74.00
39177;BME280;24904;52.208;21.192;2022-07-23T18:07:51;100289.17;;;19.96;74.07
39177;BME280;24904;52.208;21.192;2022-07-23T18:12:54;100283.34;;;19.92;74.34
39177;BME280;24904;52.208;21.192;2022-07-23T18:17:58;100277.52;;;19.89;74.96
39177;BME280;24904;52.208;21.192;2022-07-23T18:23:01;100288.38;;;19.89;75.01
39177;BME280;24904;52.208;21.192;2022-07-23T18:28:05;100304.27;;;19.87;75.35
39177;BME280;24904;52.208;21.192;2022-07-23T18:33:08;100310.95;;;19.87;75.60
39177;BME280;24904;52.208;21.192;2022-07-23T18:38:11;100308.44;;;19.82;75.64
39177;BME280;24904;52.208;21.192;2022-07-23T18:43:14;100310.73;;;19.83;75.77
39177;BME280;24904;52.208;21.192;2022-07-23T18:48:18;100309.54;;;19.77;75.63
39177;BME280;24904;52.208;21.192;2022-07-23T18:53:22;100312.81;;;19.71;75.84
39177;BME280;24904;52.208;21.192;2022-07-23T18:58:25;100318.01;;;19.64;76.15
39177;BME280;24904;52.208;21.192;2022-07-23T19:03:28;100330.67;;;19.61;76.12
39177;BME280;24904;52.208;21.192;2022-07-23T19:08:31;100331.04;;;19.60;76.09
39177;BME280;24904;52.208;21.192;2022-07-23T19:13:34;100331.25;;;19.53;76.19
39177;BME280;24904;52.208;21.192;2022-07-23T19:18:38;100334.77;;;19.46;76.42
39177;BME280;24904;52.208;21.192;2022-07-23T19:23:41;100338.08;;;19.44;76.80
39177;BME280;24904;52.208;21.192;2022-07-23T19:28:45;100345.75;;;19.43;77.09
39177;BME280;24904;52.208;21.192;2022-07-23T19:33:49;100351.43;;;19.41;77.30
39177;BME280;24904;52.208;21.192;2022-07-23T19:38:52;100360.66;;;19.38;77.56
39177;BME280;24904;52.208;21.192;2022-07-23T19:43:55;100364.94;;;19.39;77.86
39177;BME280;24904;52.208;21.192;2022-07-23T19:48:58;100375.10;;;19.34;77.93
39177;BME280;24904;52.208;21.192;2022-07-23T19:54:01;100370.73;;;19.30;78.18
39177;BME280;24904;52.208;21.192;2022-07-23T19:59:04;100372.52;;;19.29;78.42
39177;BME280;24904;52.208;21.192;2022-07-23T20:04:08;100376.15;;;19.30;78.52
39177;BME280;24904;52.208;21.192;2022-07-23T20:09:11;100387.48;;;19.28;78.66
39177;BME280;24904;52.208;21.192;2022-07-23T20:14:14;100394.10;;;19.27;78.84
39177;BME280;24904;52.208;21.192;2022-07-23T20:19:17;100405.79;;;19.32;79.17
39177;BME280;24904;52.208;21.192;2022-07-23T20:24:20;100412.95;;;19.41;79.30
39177;BME280;24904;52.208;21.192;2022-07-23T20:29:24;100415.31;;;19.42;79.31
39177;BME280;24904;52.208;21.192;2022-07-23T20:34:27;100428.85;;;19.41;79.53
39177;BME280;24904;52.208;21.192;2022-07-23T20:39:30;100438.71;;;19.45;79.73
39177;BME280;24904;52.208;21.192;2022-07-23T20:44:33;100449.04;;;19.46;79.88
39177;BME280;24904;52.208;21.192;2022-07-23T20:49:36;100464.70;;;19.47;80.11
39177;BME280;24904;52.208;21.192;2022-07-23T20:54:39;100467.03;;;19.51;80.22
39177;BME280;24904;52.208;21.192;2022-07-23T20:59:42;100475.46;;;19.51;80.23
39177;BME280;24904;52.208;21.192;2022-07-23T21:04:46;100478.72;;;19.52;80.39
39177;BME280;24904;52.208;21.192;2022-07-23T21:09:51;100481.66;;;19.52;80.65
39177;BME280;24904;52.208;21.192;2022-07-23T21:14:54;100485.33;;;19.51;80.77
39177;BME280;24904;52.208;21.192;2022-07-23T21:19:59;100497.85;;;19.51;80.90
39177;BME280;24904;52.208;21.192;2022-07-23T21:25:02;100500.68;;;19.52;81.14
39177;BME280;24904;52.208;21.192;2022-07-23T21:30:07;100499.70;;;19.52;81.19
39177;BME280;24904;52.208;21.192;2022-07-23T21:35:11;100501.05;;;19.53;81.36
39177;BME280;24904;52.208;21.192;2022-07-23T21:40:14;100507.51;;;19.53;81.57
39177;BME280;24904;52.208;21.192;2022-07-23T21:45:17;100510.57;;;19.55;81.70
39177;BME280;24904;52.208;21.192;2022-07-23T21:50:21;100509.30;;;19.55;81.93
39177;BME280;24904;52.208;21.192;2022-07-23T21:55:24;100512.36;;;19.58;82.04
39177;BME280;24904;52.208;21.192;2022-07-23T22:00:31;100510.38;;;19.58;82.08
39177;BME280;24904;52.208;21.192;2022-07-23T22:05:35;100515.09;;;19.57;82.23
39177;BME280;24904;52.208;21.192;2022-07-23T22:10:38;100516.29;;;19.55;82.34
39177;BME280;24904;52.208;21.192;2022-07-23T22:15:42;100524.41;;;19.57;82.36
39177;BME280;24904;52.208;21.192;2022-07-23T22:20:45;100532.66;;;19.58;82.46
39177;BME280;24904;52.208;21.192;2022-07-23T22:25:49;100533.14;;;19.57;82.52
39177;BME280;24904;52.208;21.192;2022-07-23T22:30:52;100537.39;;;19.54;82.74
39177;BME280;24904;52.208;21.192;2022-07-23T22:35:55;100543.61;;;19.54;83.00
39177;BME280;24904;52.208;21.192;2022-07-23T22:40:58;100543.05;;;19.55;83.24
39177;BME280;24904;52.208;21.192;2022-07-23T22:46:01;100546.77;;;19.56;83.37
39177;BME280;24904;52.208;21.192;2022-07-23T22:51:04;100540.42;;;19.55;83.49
39177;BME280;24904;52.208;21.192;2022-07-23T22:56:08;100537.40;;;19.55;83.53
39177;BME280;24904;52.208;21.192;2022-07-23T23:01:11;100541.67;;;19.57;83.73
39177;BME280;24904;52.208;21.192;2022-07-23T23:06:14;100534.73;;;19.58;83.82
39177;BME280;24904;52.208;21.192;2022-07-23T23:11:17;100527.59;;;19.56;83.96
39177;BME280;24904;52.208;21.192;2022-07-23T23:16:21;100521.20;;;19.58;84.14
39177;BME280;24904;52.208;21.192;2022-07-23T23:21:24;100508.97;;;19.60;84.14
39177;BME280;24904;52.208;21.192;2022-07-23T23:26:27;100499.94;;;19.62;84.26
39177;BME280;24904;52.208;21.192;2022-07-23T23:31:31;100495.95;;;19.65;84.22
39177;BME280;24904;52.208;21.192;2022-07-23T23:36:34;100495.02;;;19.64;84.16
39177;BME280;24904;52.208;21.192;2022-07-23T23:41:37;100490.34;;;19.64;84.28
39177;BME280;24904;52.208;21.192;2022-07-23T23:46:40;100488.52;;;19.64;84.41
39177;BME280;24904;52.208;21.192;2022-07-23T23:51:43;100485.84;;;19.62;84.51
39177;BME280;24904;52.208;21.192;2022-07-23T23:56:47;100480.30;;;19.61;84.70
